Terminal Aerodrome Forecast
Issued by NWS Sioux Falls, SD

Home | Current Version | Previous Version | Text Only | Print | Product List | Glossary On
Versions: 1 2 3 4 5 6 7 8 9 10 11 12 13 14
000
FTUS43 KFSD 222339
TAFFSD
TAF
KFSD 222339Z 2300/2324 15005KT P6SM BKN200
     FM231000 14006KT P6SM BKN080
     FM231200 15008KT P6SM OVC070
      TEMPO 2312/2314 -SHRA
     FM231400 15014G18KT P6SM -SHRA OVC060=

USA.gov is the U.S. government's official web portal to all federal, state and local government web resources and services.